sensor_id;sensor_type;location;lat;lon;timestamp;pressure;altitude;pressure_sealevel;temperature;humidity
33913;BME280;20200;52.084;5.224;2023-04-07T00:01:12;152585.0;;;15.17;57.46
33913;BME280;20200;52.084;5.224;2023-04-07T00:04:24;152613.0;;;15.27;56.94
33913;BME280;20200;52.084;5.224;2023-04-07T00:06:00;152679.0;;;15.54;56.64
33913;BME280;20200;52.084;5.224;2023-04-07T00:07:36;152750.0;;;15.82;55.13
33913;BME280;20200;52.084;5.224;2023-04-07T00:09:13;152686.0;;;15.56;55.71
33913;BME280;20200;52.084;5.224;2023-04-07T00:12:25;152769.0;;;15.9;55.49
33913;BME280;20200;52.084;5.224;2023-04-07T00:14:01;152743.0;;;15.79;55.41
33913;BME280;20200;52.084;5.224;2023-04-07T00:15:37;152754.0;;;15.84;55.32
33913;BME280;20200;52.084;5.224;2023-04-07T00:18:50;152772.0;;;15.91;54.89
33913;BME280;20200;52.084;5.224;2023-04-07T00:20:27;152702.0;;;15.63;55.33
33913;BME280;20200;52.084;5.224;2023-04-07T00:22:03;152735.0;;;15.76;55.58
33913;BME280;20200;52.084;5.224;2023-04-07T00:25:15;152817.0;;;16.09;54.81
33913;BME280;20200;52.084;5.224;2023-04-07T00:26:51;152754.0;;;15.83;54.87
33913;BME280;20200;52.084;5.224;2023-04-07T00:28:27;152784.0;;;15.96;55.15
33913;BME280;20200;52.084;5.224;2023-04-07T00:31:41;152686.0;;;15.56;55.83
33913;BME280;20200;52.084;5.224;2023-04-07T00:33:18;152569.0;;;15.1;56.8
33913;BME280;20200;52.084;5.224;2023-04-07T00:34:54;152677.0;;;15.53;56.05
33913;BME280;20200;52.084;5.224;2023-04-07T00:36:30;152542.0;;;14.99;56.75
33913;BME280;20200;52.084;5.224;2023-04-07T00:39:42;152667.0;;;15.49;55.81
33913;BME280;20200;52.084;5.224;2023-04-07T00:41:18;152704.0;;;15.64;55.21
33913;BME280;20200;52.084;5.224;2023-04-07T00:42:54;152704.0;;;15.64;55.41
33913;BME280;20200;52.084;5.224;2023-04-07T00:46:07;152697.0;;;15.62;55.85
33913;BME280;20200;52.084;5.224;2023-04-07T00:47:43;152613.0;;;15.27;56.84
33913;BME280;20200;52.084;5.224;2023-04-07T00:49:19;152481.0;;;14.75;57.85
33913;BME280;20200;52.084;5.224;2023-04-07T00:52:31;152626.0;;;15.33;56.74
33913;BME280;20200;52.084;5.224;2023-04-07T00:54:09;152652.0;;;15.43;56.26
33913;BME280;20200;52.084;5.224;2023-04-07T00:55:45;152681.0;;;15.54;55.61
33913;BME280;20200;52.084;5.224;2023-04-07T00:57:21;152790.0;;;15.98;54.69
33913;BME280;20200;52.084;5.224;2023-04-07T01:00:37;152768.0;;;15.89;54.75
33913;BME280;20200;52.084;5.224;2023-04-07T01:02:20;152752.0;;;15.83;54.98
33913;BME280;20200;52.084;5.224;2023-04-07T01:04:04;152695.0;;;15.6;55.2
33913;BME280;20200;52.084;5.224;2023-04-07T01:05:49;152717.0;;;15.69;55.49
33913;BME280;20200;52.084;5.224;2023-04-07T01:09:18;152492.0;;;14.8;57.48
33913;BME280;20200;52.084;5.224;2023-04-07T01:11:02;152429.0;;;14.54;58.55
33913;BME280;20200;52.084;5.224;2023-04-07T01:12:46;152600.0;;;15.22;56.63
33913;BME280;20200;52.084;5.224;2023-04-07T01:14:31;152624.0;;;15.32;56.56
33913;BME280;20200;52.084;5.224;2023-04-07T01:16:15;152618.0;;;15.3;56.44
33913;BME280;20200;52.084;5.224;2023-04-07T01:19:47;152675.0;;;15.52;55.98
33913;BME280;20200;52.084;5.224;2023-04-07T01:21:32;152635.0;;;15.36;56.24
33913;BME280;20200;52.084;5.224;2023-04-07T01:23:17;152620.0;;;15.31;56.15
33913;BME280;20200;52.084;5.224;2023-04-07T01:25:08;152591.0;;;15.19;56.6
33913;BME280;20200;52.084;5.224;2023-04-07T01:26:59;152582.0;;;15.15;56.82
33913;BME280;20200;52.084;5.224;2023-04-07T01:28:54;152503.0;;;14.84;57.61
33913;BME280;20200;52.084;5.224;2023-04-07T01:31:08;152542.0;;;14.99;57.3
33913;BME280;20200;52.084;5.224;2023-04-07T01:34:28;152560.0;;;15.06;57.19
33913;BME280;20200;52.084;5.224;2023-04-07T01:36:08;152625.0;;;15.32;56.49
33913;BME280;20200;52.084;5.224;2023-04-07T01:37:46;152587.0;;;15.17;56.83
33913;BME280;20200;52.084;5.224;2023-04-07T01:39:25;152767.0;;;15.89;55.02
33913;BME280;20200;52.084;5.224;2023-04-07T01:42:39;152672.0;;;15.51;55.66
33913;BME280;20200;52.084;5.224;2023-04-07T01:44:18;152685.0;;;15.56;55.74
33913;BME280;20200;52.084;5.224;2023-04-07T01:45:55;152655.0;;;15.44;55.81
33913;BME280;20200;52.084;5.224;2023-04-07T01:47:33;152628.0;;;15.33;56.13
33913;BME280;20200;52.084;5.224;2023-04-07T01:50:48;152715.0;;;15.68;55.31
33913;BME280;20200;52.084;5.224;2023-04-07T01:52:25;152667.0;;;15.49;55.33
33913;BME280;20200;52.084;5.224;2023-04-07T01:54:03;152778.0;;;15.93;54.4
33913;BME280;20200;52.084;5.224;2023-04-07T01:57:16;152631.0;;;15.35;55.48
33913;BME280;20200;52.084;5.224;2023-04-07T01:58:52;152640.0;;;15.38;56.08
33913;BME280;20200;52.084;5.224;2023-04-07T02:00:28;152721.0;;;15.7;55.02
33913;BME280;20200;52.084;5.224;2023-04-07T02:03:44;152786.0;;;15.96;54.5
33913;BME280;20200;52.084;5.224;2023-04-07T02:05:23;152668.0;;;15.5;55.32
33913;BME280;20200;52.084;5.224;2023-04-07T02:07:06;152675.0;;;15.52;55.1
33913;BME280;20200;52.084;5.224;2023-04-07T02:08:49;152635.0;;;15.36;55.88
33913;BME280;20200;52.084;5.224;2023-04-07T02:10:33;152588.0;;;15.18;56.17
33913;BME280;20200;52.084;5.224;2023-04-07T02:13:51;152651.0;;;15.43;55.89
33913;BME280;20200;52.084;5.224;2023-04-07T02:15:30;152479.0;;;14.74;57.17
33913;BME280;20200;52.084;5.224;2023-04-07T02:17:07;152586.0;;;15.17;56.31
33913;BME280;20200;52.084;5.224;2023-04-07T02:20:22;152569.0;;;15.1;56.45
33913;BME280;20200;52.084;5.224;2023-04-07T02:22:00;152591.0;;;15.19;56.46
33913;BME280;20200;52.084;5.224;2023-04-07T02:23:38;152580.0;;;15.14;56.86
33913;BME280;20200;52.084;5.224;2023-04-07T02:25:23;152608.0;;;15.25;56.16
33913;BME280;20200;52.084;5.224;2023-04-07T02:28:36;152447.0;;;14.62;57.81
33913;BME280;20200;52.084;5.224;2023-04-07T02:30:13;152352.0;;;14.24;58.96
33913;BME280;20200;52.084;5.224;2023-04-07T02:31:49;152550.0;;;15.03;56.95
33913;BME280;20200;52.084;5.224;2023-04-07T02:35:01;152569.0;;;15.1;56.67
33913;BME280;20200;52.084;5.224;2023-04-07T02:36:38;152473.0;;;14.72;57.44
33913;BME280;20200;52.084;5.224;2023-04-07T02:38:14;152672.0;;;15.51;55.48
33913;BME280;20200;52.084;5.224;2023-04-07T02:39:50;152636.0;;;15.37;55.47
33913;BME280;20200;52.084;5.224;2023-04-07T02:43:02;152711.0;;;15.66;55.1
33913;BME280;20200;52.084;5.224;2023-04-07T02:44:38;152797.0;;;16.02;54.17
33913;BME280;20200;52.084;5.224;2023-04-07T02:46:14;152713.0;;;15.67;54.69
33913;BME280;20200;52.084;5.224;2023-04-07T02:49:26;152816.0;;;16.09;53.85
33913;BME280;20200;52.084;5.224;2023-04-07T02:51:03;152749.0;;;15.81;54.36
33913;BME280;20200;52.084;5.224;2023-04-07T02:52:39;152599.0;;;15.22;55.52
33913;BME280;20200;52.084;5.224;2023-04-07T02:55:51;152711.0;;;15.66;55.07
33913;BME280;20200;52.084;5.224;2023-04-07T02:57:27;152565.0;;;15.08;56.23
33913;BME280;20200;52.084;5.224;2023-04-07T02:59:03;152599.0;;;15.22;55.82
33913;BME280;20200;52.084;5.224;2023-04-07T03:02:15;152623.0;;;15.32;55.85
33913;BME280;20200;52.084;5.224;2023-04-07T03:03:52;152683.0;;;15.55;55.25
33913;BME280;20200;52.084;5.224;2023-04-07T03:05:28;152724.0;;;15.72;54.68
33913;BME280;20200;52.084;5.224;2023-04-07T03:07:04;152822.0;;;16.11;53.26
33913;BME280;20200;52.084;5.224;2023-04-07T03:10:16;152875.0;;;16.32;52.91
33913;BME280;20200;52.084;5.224;2023-04-07T03:11:53;152827.0;;;16.13;53.56
33913;BME280;20200;52.084;5.224;2023-04-07T03:13:28;152711.0;;;15.67;54.34
33913;BME280;20200;52.084;5.224;2023-04-07T03:16:42;152795.0;;;16.0;53.58
33913;BME280;20200;52.084;5.224;2023-04-07T03:18:18;152640.0;;;15.38;55.16
33913;BME280;20200;52.084;5.224;2023-04-07T03:19:54;152665.0;;;15.48;54.84
33913;BME280;20200;52.084;5.224;2023-04-07T03:23:06;152766.0;;;15.89;54.35
33913;BME280;20200;52.084;5.224;2023-04-07T03:24:43;152809.0;;;16.06;53.71
33913;BME280;20200;52.084;5.224;2023-04-07T03:26:19;152770.0;;;15.9;54.3
33913;BME280;20200;52.084;5.224;2023-04-07T03:27:55;152790.0;;;15.98;53.63
33913;BME280;20200;52.084;5.224;2023-04-07T03:31:07;152761.0;;;15.87;53.94
33913;BME280;20200;52.084;5.224;2023-04-07T03:32:43;152843.0;;;16.2;53.39
33913;BME280;20200;52.084;5.224;2023-04-07T03:34:19;152790.0;;;15.98;53.41
33913;BME280;20200;52.084;5.224;2023-04-07T03:37:32;152555.0;;;15.05;55.87
33913;BME280;20200;52.084;5.224;2023-04-07T03:39:08;152611.0;;;15.27;55.79
33913;BME280;20200;52.084;5.224;2023-04-07T03:40:44;152718.0;;;15.69;54.98
33913;BME280;20200;52.084;5.224;2023-04-07T03:43:56;152666.0;;;15.49;54.69
33913;BME280;20200;52.084;5.224;2023-04-07T03:45:32;152805.0;;;16.04;53.67
33913;BME280;20200;52.084;5.224;2023-04-07T03:47:08;152856.0;;;16.25;53.15
33913;BME280;20200;52.084;5.224;2023-04-07T03:50:21;152743.0;;;15.79;54.19
33913;BME280;20200;52.084;5.224;2023-04-07T03:51:57;152866.0;;;16.28;52.89
33913;BME280;20200;52.084;5.224;2023-04-07T03:53:33;152840.0;;;16.18;53.2
33913;BME280;20200;52.084;5.224;2023-04-07T03:55:09;152986.0;;;16.77;51.85
33913;BME280;20200;52.084;5.224;2023-04-07T03:58:21;152993.0;;;16.78;51.27
33913;BME280;20200;52.084;5.224;2023-04-07T03:59:58;152784.0;;;15.95;53.36
33913;BME280;20200;52.084;5.224;2023-04-07T04:01:34;152863.0;;;16.27;52.75
33913;BME280;20200;52.084;5.224;2023-04-07T04:04:46;152583.0;;;15.16;55.53
33913;BME280;20200;52.084;5.224;2023-04-07T04:06:22;152546.0;;;15.01;55.65
33913;BME280;20200;52.084;5.224;2023-04-07T04:07:58;152604.0;;;15.24;55.33
33913;BME280;20200;52.084;5.224;2023-04-07T04:11:11;152587.0;;;15.17;55.4
33913;BME280;20200;52.084;5.224;2023-04-07T04:12:47;152718.0;;;15.69;54.51
33913;BME280;20200;52.084;5.224;2023-04-07T04:14:24;152910.0;;;16.46;52.29
33913;BME280;20200;52.084;5.224;2023-04-07T04:17:36;152649.0;;;15.42;54.64
33913;BME280;20200;52.084;5.224;2023-04-07T04:19:12;152677.0;;;15.53;54.45
33913;BME280;20200;52.084;5.224;2023-04-07T04:20:48;152748.0;;;15.81;54.07
33913;BME280;20200;52.084;5.224;2023-04-07T04:22:24;152749.0;;;15.81;54.07
33913;BME280;20200;52.084;5.224;2023-04-07T04:25:37;152759.0;;;15.87;53.41
33913;BME280;20200;52.084;5.224;2023-04-07T04:27:14;152629.0;;;15.34;54.89
33913;BME280;20200;52.084;5.224;2023-04-07T04:28:51;152639.0;;;15.38;54.79
33913;BME280;20200;52.084;5.224;2023-04-07T04:32:04;152607.0;;;15.25;54.93
33913;BME280;20200;52.084;5.224;2023-04-07T04:33:40;152526.0;;;14.93;55.99
33913;BME280;20200;52.084;5.224;2023-04-07T04:38:30;152590.0;;;15.18;55.29
33913;BME280;20200;52.084;5.224;2023-04-07T04:40:06;152683.0;;;15.55;54.35
33913;BME280;20200;52.084;5.224;2023-04-07T04:41:43;152567.0;;;15.09;55.48
33913;BME280;20200;52.084;5.224;2023-04-07T04:43:20;152587.0;;;15.17;55.37
33913;BME280;20200;52.084;5.224;2023-04-07T04:46:33;152806.0;;;16.04;53.2
33913;BME280;20200;52.084;5.224;2023-04-07T04:48:09;152474.0;;;14.72;56.14
33913;BME280;20200;52.084;5.224;2023-04-07T04:49:46;152514.0;;;14.88;55.85
33913;BME280;20200;52.084;5.224;2023-04-07T04:52:58;152529.0;;;14.94;55.5
33913;BME280;20200;52.084;5.224;2023-04-07T04:54:34;152551.0;;;15.03;55.31
33913;BME280;20200;52.084;5.224;2023-04-07T04:59:24;152691.0;;;15.59;53.55
33913;BME280;20200;52.084;5.224;2023-04-07T05:00:59;152590.0;;;15.18;54.27
33913;BME280;20200;52.084;5.224;2023-04-07T05:02:36;152657.0;;;15.45;54.16
33913;BME280;20200;52.084;5.224;2023-04-07T05:04:13;152656.0;;;15.45;54.17
33913;BME280;20200;52.084;5.224;2023-04-07T05:07:27;152881.0;;;16.34;51.89
33913;BME280;20200;52.084;5.224;2023-04-07T05:09:03;152775.0;;;15.92;52.71
33913;BME280;20200;52.084;5.224;2023-04-07T05:10:41;152841.0;;;16.18;52.22
33913;BME280;20200;52.084;5.224;2023-04-07T05:13:54;152846.0;;;16.2;51.75
33913;BME280;20200;52.084;5.224;2023-04-07T05:15:30;152872.0;;;16.31;51.88
33913;BME280;20200;52.084;5.224;2023-04-07T05:17:08;152793.0;;;15.99;52.52
33913;BME280;20200;52.084;5.224;2023-04-07T05:20:20;152832.0;;;16.15;52.15
33913;BME280;20200;52.084;5.224;2023-04-07T05:21:57;152791.0;;;15.98;52.55
33913;BME280;20200;52.084;5.224;2023-04-07T05:23:34;152875.0;;;16.32;51.61
33913;BME280;20200;52.084;5.224;2023-04-07T05:25:11;152762.0;;;15.87;52.67
33913;BME280;20200;52.084;5.224;2023-04-07T05:28:24;152645.0;;;15.4;53.77
33913;BME280;20200;52.084;5.224;2023-04-07T05:30:00;152534.0;;;14.96;55.04
33913;BME280;20200;52.084;5.224;2023-04-07T05:31:36;152656.0;;;15.45;54.28
33913;BME280;20200;52.084;5.224;2023-04-07T05:34:49;152635.0;;;15.36;54.23
33913;BME280;20200;52.084;5.224;2023-04-07T05:36:26;152597.0;;;15.21;54.42
33913;BME280;20200;52.084;5.224;2023-04-07T05:38:02;152597.0;;;15.21;54.51
33913;BME280;20200;52.084;5.224;2023-04-07T05:41:15;152685.0;;;15.56;53.69
33913;BME280;20200;52.084;5.224;2023-04-07T05:42:52;152723.0;;;15.71;52.92
33913;BME280;20200;52.084;5.224;2023-04-07T05:44:29;152617.0;;;15.29;53.66
33913;BME280;20200;52.084;5.224;2023-04-07T05:46:06;152747.0;;;15.81;52.97
33913;BME280;20200;52.084;5.224;2023-04-07T05:49:18;152882.0;;;16.36;51.65
33913;BME280;20200;52.084;5.224;2023-04-07T05:50:55;152673.0;;;15.51;53.55
33913;BME280;20200;52.084;5.224;2023-04-07T05:52:32;152814.0;;;16.09;52.07
33913;BME280;20200;52.084;5.224;2023-04-07T05:55:45;152769.0;;;15.9;52.41
33913;BME280;20200;52.084;5.224;2023-04-07T05:57:22;152891.0;;;16.38;51.39
33913;BME280;20200;52.084;5.224;2023-04-07T05:58:58;152694.0;;;15.6;53.18
33913;BME280;20200;52.084;5.224;2023-04-07T06:02:12;152775.0;;;15.92;52.67
33913;BME280;20200;52.084;5.224;2023-04-07T06:03:48;152802.0;;;16.03;52.08
33913;BME280;20200;52.084;5.224;2023-04-07T06:05:24;152909.0;;;16.45;51.31
33913;BME280;20200;52.084;5.224;2023-04-07T06:07:01;152914.0;;;16.47;50.95
33913;BME280;20200;52.084;5.224;2023-04-07T06:10:14;152823.0;;;16.11;52.13
33913;BME280;20200;52.084;5.224;2023-04-07T06:11:50;152829.0;;;16.13;51.99
33913;BME280;20200;52.084;5.224;2023-04-07T06:13:26;152744.0;;;15.8;52.81
33913;BME280;20200;52.084;5.224;2023-04-07T06:16:39;152832.0;;;16.15;52.05
33913;BME280;20200;52.084;5.224;2023-04-07T06:18:16;152871.0;;;16.3;51.55
33913;BME280;20200;52.084;5.224;2023-04-07T06:19:51;152861.0;;;16.27;52.04
33913;BME280;20200;52.084;5.224;2023-04-07T06:23:03;152936.0;;;16.56;51.21
33913;BME280;20200;52.084;5.224;2023-04-07T06:24:40;152923.0;;;16.52;51.17
33913;BME280;20200;52.084;5.224;2023-04-07T06:26:16;153004.0;;;16.84;50.37
33913;BME280;20200;52.084;5.224;2023-04-07T06:27:52;152817.0;;;16.09;51.91
33913;BME280;20200;52.084;5.224;2023-04-07T06:31:07;152784.0;;;15.95;52.18
33913;BME280;20200;52.084;5.224;2023-04-07T06:32:43;152668.0;;;15.49;53.32
33913;BME280;20200;52.084;5.224;2023-04-07T06:34:20;152784.0;;;15.96;52.68
33913;BME280;20200;52.084;5.224;2023-04-07T06:37:32;152749.0;;;15.81;52.53
33913;BME280;20200;52.084;5.224;2023-04-07T06:39:08;152839.0;;;16.18;51.94
33913;BME280;20200;52.084;5.224;2023-04-07T06:40:44;152914.0;;;16.47;51.31
33913;BME280;20200;52.084;5.224;2023-04-07T06:43:56;152759.0;;;15.87;52.4
33913;BME280;20200;52.084;5.224;2023-04-07T06:45:32;152799.0;;;16.02;52.09
33913;BME280;20200;52.084;5.224;2023-04-07T06:47:09;152663.0;;;15.47;53.66
33913;BME280;20200;52.084;5.224;2023-04-07T06:48:45;152690.0;;;15.58;53.38
33913;BME280;20200;52.084;5.224;2023-04-07T06:51:57;152702.0;;;15.63;53.39
33913;BME280;20200;52.084;5.224;2023-04-07T06:53:33;152822.0;;;16.11;52.2
33913;BME280;20200;52.084;5.224;2023-04-07T06:55:09;152790.0;;;15.98;52.5
33913;BME280;20200;52.084;5.224;2023-04-07T06:58:22;152806.0;;;16.04;52.18
33913;BME280;20200;52.084;5.224;2023-04-07T06:59:57;152793.0;;;15.99;52.36
33913;BME280;20200;52.084;5.224;2023-04-07T07:01:33;152749.0;;;15.82;53.24
33913;BME280;20200;52.084;5.224;2023-04-07T07:04:45;152848.0;;;16.21;52.12
33913;BME280;20200;52.084;5.224;2023-04-07T07:06:22;152802.0;;;16.03;52.78
33913;BME280;20200;52.084;5.224;2023-04-07T07:07:58;152747.0;;;15.81;53.34
33913;BME280;20200;52.084;5.224;2023-04-07T07:11:10;152680.0;;;15.54;53.91
33913;BME280;20200;52.084;5.224;2023-04-07T07:12:46;152741.0;;;15.79;53.2
33913;BME280;20200;52.084;5.224;2023-04-07T07:14:22;152880.0;;;16.34;51.67
33913;BME280;20200;52.084;5.224;2023-04-07T07:15:58;152741.0;;;15.78;53.04
33913;BME280;20200;52.084;5.224;2023-04-07T07:19:11;152921.0;;;16.5;51.74
33913;BME280;20200;52.084;5.224;2023-04-07T07:20:47;152698.0;;;15.62;53.73
33913;BME280;20200;52.084;5.224;2023-04-07T07:22:23;152575.0;;;15.12;54.75
33913;BME280;20200;52.084;5.224;2023-04-07T07:25:35;152586.0;;;15.17;54.91
33913;BME280;20200;52.084;5.224;2023-04-07T07:27:12;152610.0;;;15.26;54.56
33913;BME280;20200;52.084;5.224;2023-04-07T07:28:48;152669.0;;;15.5;54.06
33913;BME280;20200;52.084;5.224;2023-04-07T07:32:00;152601.0;;;15.23;54.75
33913;BME280;20200;52.084;5.224;2023-04-07T07:33:36;152672.0;;;15.51;54.38
33913;BME280;20200;52.084;5.224;2023-04-07T07:35:12;152540.0;;;14.98;55.6
33913;BME280;20200;52.084;5.224;2023-04-07T07:38:25;152569.0;;;15.1;55.51
33913;BME280;20200;52.084;5.224;2023-04-07T07:40:02;152652.0;;;15.43;54.41
33913;BME280;20200;52.084;5.224;2023-04-07T07:41:38;152617.0;;;15.29;55.03
33913;BME280;20200;52.084;5.224;2023-04-07T07:43:14;152677.0;;;15.53;54.3
33913;BME280;20200;52.084;5.224;2023-04-07T07:46:26;152591.0;;;15.19;55.07
33913;BME280;20200;52.084;5.224;2023-04-07T07:48:02;152779.0;;;15.94;53.18
33913;BME280;20200;52.084;5.224;2023-04-07T07:49:38;152806.0;;;16.04;53.13
33913;BME280;20200;52.084;5.224;2023-04-07T07:52:51;153018.0;;;16.89;51.14
33913;BME280;20200;52.084;5.224;2023-04-07T07:54:27;152877.0;;;16.32;52.05
33913;BME280;20200;52.084;5.224;2023-04-07T07:56:03;152987.0;;;16.77;51.37
33913;BME280;20200;52.084;5.224;2023-04-07T07:59:15;152827.0;;;16.13;52.9
33913;BME280;20200;52.084;5.224;2023-04-07T08:00:52;152861.0;;;16.27;52.63
33913;BME280;20200;52.084;5.224;2023-04-07T08:02:28;152875.0;;;16.32;51.94
33913;BME280;20200;52.084;5.224;2023-04-07T08:04:04;152724.0;;;15.72;53.76
33913;BME280;20200;52.084;5.224;2023-04-07T08:07:17;152781.0;;;15.94;52.97
33913;BME280;20200;52.084;5.224;2023-04-07T08:08:53;152810.0;;;16.06;53.07
33913;BME280;20200;52.084;5.224;2023-04-07T08:10:30;152867.0;;;16.29;52.5
33913;BME280;20200;52.084;5.224;2023-04-07T08:13:42;152811.0;;;16.06;52.6
33913;BME280;20200;52.084;5.224;2023-04-07T08:15:18;152773.0;;;15.91;53.0
33913;BME280;20200;52.084;5.224;2023-04-07T08:16:54;152906.0;;;16.45;51.99
33913;BME280;20200;52.084;5.224;2023-04-07T08:20:08;152870.0;;;16.3;52.14
33913;BME280;20200;52.084;5.224;2023-04-07T08:21:43;152955.0;;;16.64;51.14
33913;BME280;20200;52.084;5.224;2023-04-07T08:23:21;152893.0;;;16.39;50.84
33913;BME280;20200;52.084;5.224;2023-04-07T08:26:33;152697.0;;;15.62;52.48
33913;BME280;20200;52.084;5.224;2023-04-07T08:28:09;152702.0;;;15.63;52.27
33913;BME280;20200;52.084;5.224;2023-04-07T08:29:50;152832.0;;;16.15;51.35
33913;BME280;20200;52.084;5.224;2023-04-07T08:31:32;152666.0;;;15.49;52.58
33913;BME280;20200;52.084;5.224;2023-04-07T08:34:45;152813.0;;;16.07;50.99
33913;BME280;20200;52.084;5.224;2023-04-07T08:36:21;152818.0;;;16.09;50.9
33913;BME280;20200;52.084;5.224;2023-04-07T08:37:57;152672.0;;;15.51;52.08
33913;BME280;20200;52.084;5.224;2023-04-07T08:41:11;152606.0;;;15.25;52.87
33913;BME280;20200;52.084;5.224;2023-04-07T08:42:48;152748.0;;;15.81;51.6
33913;BME280;20200;52.084;5.224;2023-04-07T08:44:24;152745.0;;;15.8;51.34
33913;BME280;20200;52.084;5.224;2023-04-07T08:46:03;152635.0;;;15.36;52.1
33913;BME280;20200;52.084;5.224;2023-04-07T08:49:18;152665.0;;;15.48;51.61
33913;BME280;20200;52.084;5.224;2023-04-07T08:50:57;152623.0;;;15.32;51.75
33913;BME280;20200;52.084;5.224;2023-04-07T08:52:38;152774.0;;;15.92;51.14
33913;BME280;20200;52.084;5.224;2023-04-07T08:54:18;152798.0;;;16.02;50.25
33913;BME280;20200;52.084;5.224;2023-04-07T08:57:32;152765.0;;;15.88;50.46
33913;BME280;20200;52.084;5.224;2023-04-07T08:59:11;152715.0;;;15.68;50.69
33913;BME280;20200;52.084;5.224;2023-04-07T09:00:49;152690.0;;;15.58;51.01
33913;BME280;20200;52.084;5.224;2023-04-07T09:04:03;152800.0;;;16.02;50.23
33913;BME280;20200;52.084;5.224;2023-04-07T09:05:42;152614.0;;;15.28;51.58
33913;BME280;20200;52.084;5.224;2023-04-07T09:07:19;152781.0;;;15.94;50.21
33913;BME280;20200;52.084;5.224;2023-04-07T09:08:55;152790.0;;;15.98;50.04
33913;BME280;20200;52.084;5.224;2023-04-07T09:12:07;152881.0;;;16.34;49.64
33913;BME280;20200;52.084;5.224;2023-04-07T09:13:44;152727.0;;;15.73;50.82
33913;BME280;20200;52.084;5.224;2023-04-07T09:15:20;152850.0;;;16.22;49.73
33913;BME280;20200;52.084;5.224;2023-04-07T09:18:33;152694.0;;;15.6;50.52
33913;BME280;20200;52.084;5.224;2023-04-07T09:20:10;152854.0;;;16.23;49.78
33913;BME280;20200;52.084;5.224;2023-04-07T09:21:48;152854.0;;;16.23;49.59
33913;BME280;20200;52.084;5.224;2023-04-07T09:25:14;152722.0;;;15.71;50.39
33913;BME280;20200;52.084;5.224;2023-04-07T09:27:07;152597.0;;;15.21;51.68
33913;BME280;20200;52.084;5.224;2023-04-07T09:28:45;152802.0;;;16.03;50.53
33913;BME280;20200;52.084;5.224;2023-04-07T09:30:22;152922.0;;;16.5;49.49
33913;BME280;20200;52.084;5.224;2023-04-07T09:31:59;153025.0;;;16.91;48.61
33913;BME280;20200;52.084;5.224;2023-04-07T09:35:12;153130.0;;;17.34;47.9
33913;BME280;20200;52.084;5.224;2023-04-07T09:36:48;152911.0;;;16.46;49.08
33913;BME280;20200;52.084;5.224;2023-04-07T09:38:31;152814.0;;;16.07;49.58
33913;BME280;20200;52.084;5.224;2023-04-07T09:41:45;152738.0;;;15.77;50.19
33913;BME280;20200;52.084;5.224;2023-04-07T09:43:21;152773.0;;;15.91;50.08
33913;BME280;20200;52.084;5.224;2023-04-07T09:44:57;152747.0;;;15.81;49.99
33913;BME280;20200;52.084;5.224;2023-04-07T09:46:34;152753.0;;;15.83;50.22
33913;BME280;20200;52.084;5.224;2023-04-07T09:49:55;152770.0;;;15.9;50.23
33913;BME280;20200;52.084;5.224;2023-04-07T09:51:32;152731.0;;;15.74;50.28
33913;BME280;20200;52.084;5.224;2023-04-07T09:53:08;152914.0;;;16.47;49.17
33913;BME280;20200;52.084;5.224;2023-04-07T09:56:23;152880.0;;;16.34;49.44
33913;BME280;20200;52.084;5.224;2023-04-07T09:58:00;152645.0;;;15.4;51.23
33913;BME280;20200;52.084;5.224;2023-04-07T09:59:40;152592.0;;;15.19;51.95
33913;BME280;20200;52.084;5.224;2023-04-07T10:01:16;152834.0;;;16.15;49.9
33913;BME280;20200;52.084;5.224;2023-04-07T10:04:29;152889.0;;;16.37;49.35
33913;BME280;20200;52.084;5.224;2023-04-07T10:06:06;152633.0;;;15.35;51.11
33913;BME280;20200;52.084;5.224;2023-04-07T10:07:43;152681.0;;;15.55;50.62
33913;BME280;20200;52.084;5.224;2023-04-07T10:10:55;152713.0;;;15.67;50.8
33913;BME280;20200;52.084;5.224;2023-04-07T10:12:33;152804.0;;;16.03;49.91
33913;BME280;20200;52.084;5.224;2023-04-07T10:14:10;152786.0;;;15.96;50.08
33913;BME280;20200;52.084;5.224;2023-04-07T10:17:24;152811.0;;;16.06;50.18
33913;BME280;20200;52.084;5.224;2023-04-07T10:19:01;152940.0;;;16.59;48.59
33913;BME280;20200;52.084;5.224;2023-04-07T10:20:39;152936.0;;;16.56;48.56
33913;BME280;20200;52.084;5.224;2023-04-07T10:22:16;152909.0;;;16.45;48.82
33913;BME280;20200;52.084;5.224;2023-04-07T10:25:41;152955.0;;;16.64;48.7
33913;BME280;20200;52.084;5.224;2023-04-07T10:27:21;153061.0;;;17.06;47.94
33913;BME280;20200;52.084;5.224;2023-04-07T10:29:07;152987.0;;;16.77;48.47
33913;BME280;20200;52.084;5.224;2023-04-07T10:30:46;152984.0;;;16.75;48.71
33913;BME280;20200;52.084;5.224;2023-04-07T10:33:59;152925.0;;;16.52;49.02
33913;BME280;20200;52.084;5.224;2023-04-07T10:36:02;152993.0;;;16.78;48.47
33913;BME280;20200;52.084;5.224;2023-04-07T10:38:09;152930.0;;;16.54;48.31
33913;BME280;20200;52.084;5.224;2023-04-07T10:39:46;152801.0;;;16.02;49.4
33913;BME280;20200;52.084;5.224;2023-04-07T10:41:31;152930.0;;;16.54;48.67
33913;BME280;20200;52.084;5.224;2023-04-07T10:43:07;153053.0;;;17.03;47.64
33913;BME280;20200;52.084;5.224;2023-04-07T10:46:22;152866.0;;;16.28;48.97
33913;BME280;20200;52.084;5.224;2023-04-07T10:48:09;152791.0;;;15.98;49.68
33913;BME280;20200;52.084;5.224;2023-04-07T10:50:23;152812.0;;;16.07;49.91
33913;BME280;20200;52.084;5.224;2023-04-07T10:52:21;152922.0;;;16.5;48.56
33913;BME280;20200;52.084;5.224;2023-04-07T10:54:15;152871.0;;;16.3;48.91
33913;BME280;20200;52.084;5.224;2023-04-07T10:55:54;152840.0;;;16.18;49.44
33913;BME280;20200;52.084;5.224;2023-04-07T10:59:13;152996.0;;;16.8;48.04
33913;BME280;20200;52.084;5.224;2023-04-07T11:01:21;152995.0;;;16.79;48.29
33913;BME280;20200;52.084;5.224;2023-04-07T11:03:09;152889.0;;;16.37;49.03
33913;BME280;20200;52.084;5.224;2023-04-07T11:04:46;152856.0;;;16.25;48.99
33913;BME280;20200;52.084;5.224;2023-04-07T11:06:23;152956.0;;;16.64;48.56
33913;BME280;20200;52.084;5.224;2023-04-07T11:09:35;152801.0;;;16.02;49.35
33913;BME280;20200;52.084;5.224;2023-04-07T11:11:13;152700.0;;;15.62;50.24